sensor_id;sensor_type;location;lat;lon;timestamp;temperature;humidity
4207;DHT22;2117;47.972;7.830;2023-01-23T02:32:17;1.60;99.90
4207;DHT22;2117;47.972;7.830;2023-01-23T02:34:44;1.50;99.90
4207;DHT22;2117;47.972;7.830;2023-01-23T02:37:09;1.60;99.90
4207;DHT22;2117;47.972;7.830;2023-01-23T02:39:35;1.60;99.90
4207;DHT22;2117;47.972;7.830;2023-01-23T02:42:02;1.60;99.90
4207;DHT22;2117;47.972;7.830;2023-01-23T02:44:30;1.60;99.90
4207;DHT22;2117;47.972;7.830;2023-01-23T02:46:59;1.60;99.90
4207;DHT22;2117;47.972;7.830;2023-01-23T02:49:25;1.60;99.90
4207;DHT22;2117;47.972;7.830;2023-01-23T02:51:53;1.60;99.90
4207;DHT22;2117;47.972;7.830;2023-01-23T02:54:19;1.70;99.90
4207;DHT22;2117;47.972;7.830;2023-01-23T02:56:45;1.70;99.90
4207;DHT22;2117;47.972;7.830;2023-01-23T02:59:11;1.70;99.90
4207;DHT22;2117;47.972;7.830;2023-01-23T03:01:56;1.70;99.90
4207;DHT22;2117;47.972;7.830;2023-01-23T03:04:22;1.70;99.90
4207;DHT22;2117;47.972;7.830;2023-01-23T03:06:47;1.70;99.90
4207;DHT22;2117;47.972;7.830;2023-01-23T03:09:15;1.70;99.90
4207;DHT22;2117;47.972;7.830;2023-01-23T03:11:43;1.70;99.90
4207;DHT22;2117;47.972;7.830;2023-01-23T03:14:16;1.70;99.90
4207;DHT22;2117;47.972;7.830;2023-01-23T03:16:43;1.70;99.90
4207;DHT22;2117;47.972;7.830;2023-01-23T03:19:14;1.70;99.90
4207;DHT22;2117;47.972;7.830;2023-01-23T03:21:40;1.70;99.90
4207;DHT22;2117;47.972;7.830;2023-01-23T03:24:10;1.70;99.90
4207;DHT22;2117;47.972;7.830;2023-01-23T03:26:40;1.60;99.90
4207;DHT22;2117;47.972;7.830;2023-01-23T03:29:07;1.60;99.90
4207;DHT22;2117;47.972;7.830;2023-01-23T03:31:58;1.60;99.90
4207;DHT22;2117;47.972;7.830;2023-01-23T03:34:24;1.70;99.90
4207;DHT22;2117;47.972;7.830;2023-01-23T03:36:49;1.70;99.90
4207;DHT22;2117;47.972;7.830;2023-01-23T03:39:15;1.60;99.90
4207;DHT22;2117;47.972;7.830;2023-01-23T03:41:59;1.60;99.90
4207;DHT22;2117;47.972;7.830;2023-01-23T03:44:24;1.60;99.90
4207;DHT22;2117;47.972;7.830;2023-01-23T03:46:50;1.60;99.90
4207;DHT22;2117;47.972;7.830;2023-01-23T03:49:16;1.60;99.90
4207;DHT22;2117;47.972;7.830;2023-01-23T03:51:42;1.60;99.90
4207;DHT22;2117;47.972;7.830;2023-01-23T03:54:08;1.60;99.90
4207;DHT22;2117;47.972;7.830;2023-01-23T03:56:34;1.70;99.90
4207;DHT22;2117;47.972;7.830;2023-01-23T03:58:59;1.60;99.90
4207;DHT22;2117;47.972;7.830;2023-01-23T04:01:25;1.60;99.90
4207;DHT22;2117;47.972;7.830;2023-01-23T04:03:51;1.60;99.90
4207;DHT22;2117;47.972;7.830;2023-01-23T04:06:17;1.60;99.90
4207;DHT22;2117;47.972;7.830;2023-01-23T04:08:43;1.50;99.90
4207;DHT22;2117;47.972;7.830;2023-01-23T04:11:09;1.50;99.90
4207;DHT22;2117;47.972;7.830;2023-01-23T04:13:36;1.50;99.90
4207;DHT22;2117;47.972;7.830;2023-01-23T04:16:02;1.50;99.90
4207;DHT22;2117;47.972;7.830;2023-01-23T04:18:28;1.50;99.90
4207;DHT22;2117;47.972;7.830;2023-01-23T04:20:54;1.40;99.90
4207;DHT22;2117;47.972;7.830;2023-01-23T04:23:21;1.40;99.90
4207;DHT22;2117;47.972;7.830;2023-01-23T04:28:13;1.50;99.90
4207;DHT22;2117;47.972;7.830;2023-01-23T04:30:39;1.60;99.90
4207;DHT22;2117;47.972;7.830;2023-01-23T04:33:05;1.60;99.90
4207;DHT22;2117;47.972;7.830;2023-01-23T04:35:31;1.60;99.90
4207;DHT22;2117;47.972;7.830;2023-01-23T04:37:56;1.60;99.90
4207;DHT22;2117;47.972;7.830;2023-01-23T04:40:22;1.60;99.90
4207;DHT22;2117;47.972;7.830;2023-01-23T04:42:47;1.70;99.90
4207;DHT22;2117;47.972;7.830;2023-01-23T04:45:13;1.70;99.90
4207;DHT22;2117;47.972;7.830;2023-01-23T04:47:38;1.70;99.90
4207;DHT22;2117;47.972;7.830;2023-01-23T04:50:04;1.70;99.90
4207;DHT22;2117;47.972;7.830;2023-01-23T04:52:30;1.70;99.90
4207;DHT22;2117;47.972;7.830;2023-01-23T04:54:56;1.70;99.90
4207;DHT22;2117;47.972;7.830;2023-01-23T04:57:22;1.80;99.90
4207;DHT22;2117;47.972;7.830;2023-01-23T04:59:47;1.80;99.90
4207;DHT22;2117;47.972;7.830;2023-01-23T05:02:13;1.80;99.90
4207;DHT22;2117;47.972;7.830;2023-01-23T05:04:38;1.80;99.90
4207;DHT22;2117;47.972;7.830;2023-01-23T05:07:04;1.80;99.90
4207;DHT22;2117;47.972;7.830;2023-01-23T05:09:29;1.80;99.90
4207;DHT22;2117;47.972;7.830;2023-01-23T05:11:55;1.90;99.90
4207;DHT22;2117;47.972;7.830;2023-01-23T05:14:21;1.90;99.90
4207;DHT22;2117;47.972;7.830;2023-01-23T05:16:48;1.80;99.90
4207;DHT22;2117;47.972;7.830;2023-01-23T05:19:14;1.70;99.90
4207;DHT22;2117;47.972;7.830;2023-01-23T05:21:39;1.70;99.90
4207;DHT22;2117;47.972;7.830;2023-01-23T05:24:05;1.70;99.90
4207;DHT22;2117;47.972;7.830;2023-01-23T05:26:31;1.70;99.90
4207;DHT22;2117;47.972;7.830;2023-01-23T05:28:56;1.70;99.90
4207;DHT22;2117;47.972;7.830;2023-01-23T05:31:22;1.80;99.90
4207;DHT22;2117;47.972;7.830;2023-01-23T05:33:47;1.80;99.90
4207;DHT22;2117;47.972;7.830;2023-01-23T05:36:13;1.80;99.90
4207;DHT22;2117;47.972;7.830;2023-01-23T05:38:39;1.80;99.90
4207;DHT22;2117;47.972;7.830;2023-01-23T05:41:04;1.70;99.90
4207;DHT22;2117;47.972;7.830;2023-01-23T05:43:30;1.70;99.90
4207;DHT22;2117;47.972;7.830;2023-01-23T05:45:58;1.80;99.90
4207;DHT22;2117;47.972;7.830;2023-01-23T05:48:25;1.80;99.90
4207;DHT22;2117;47.972;7.830;2023-01-23T05:50:50;1.80;99.90
4207;DHT22;2117;47.972;7.830;2023-01-23T05:53:16;1.80;99.90
4207;DHT22;2117;47.972;7.830;2023-01-23T05:55:41;1.80;99.90
4207;DHT22;2117;47.972;7.830;2023-01-23T05:58:07;1.70;99.90
4207;DHT22;2117;47.972;7.830;2023-01-23T06:00:32;1.70;99.90
4207;DHT22;2117;47.972;7.830;2023-01-23T06:02:58;1.70;99.90
4207;DHT22;2117;47.972;7.830;2023-01-23T06:05:23;1.70;99.90
4207;DHT22;2117;47.972;7.830;2023-01-23T06:07:49;1.80;99.90
4207;DHT22;2117;47.972;7.830;2023-01-23T06:10:14;1.80;99.90
4207;DHT22;2117;47.972;7.830;2023-01-23T06:12:40;1.80;99.90
4207;DHT22;2117;47.972;7.830;2023-01-23T06:15:06;1.80;99.90
4207;DHT22;2117;47.972;7.830;2023-01-23T06:17:32;1.90;99.90
4207;DHT22;2117;47.972;7.830;2023-01-23T06:19:57;1.90;99.90
4207;DHT22;2117;47.972;7.830;2023-01-23T06:22:23;1.90;99.90
4207;DHT22;2117;47.972;7.830;2023-01-23T06:24:56;1.90;99.90
4207;DHT22;2117;47.972;7.830;2023-01-23T06:27:21;1.90;99.90
4207;DHT22;2117;47.972;7.830;2023-01-23T06:29:47;1.90;99.90
4207;DHT22;2117;47.972;7.830;2023-01-23T06:32:13;2.00;99.90
4207;DHT22;2117;47.972;7.830;2023-01-23T06:34:38;2.00;99.90
4207;DHT22;2117;47.972;7.830;2023-01-23T06:37:04;2.00;99.90
4207;DHT22;2117;47.972;7.830;2023-01-23T06:39:29;2.00;99.90
4207;DHT22;2117;47.972;7.830;2023-01-23T06:41:55;2.00;99.90
4207;DHT22;2117;47.972;7.830;2023-01-23T06:44:22;2.00;99.90
4207;DHT22;2117;47.972;7.830;2023-01-23T06:46:48;2.00;99.90
4207;DHT22;2117;47.972;7.830;2023-01-23T06:49:14;2.00;99.90
4207;DHT22;2117;47.972;7.830;2023-01-23T06:51:39;2.00;99.90
4207;DHT22;2117;47.972;7.830;2023-01-23T06:54:05;2.00;99.90
4207;DHT22;2117;47.972;7.830;2023-01-23T06:56:31;2.00;99.90
4207;DHT22;2117;47.972;7.830;2023-01-23T06:58:56;2.00;99.90
4207;DHT22;2117;47.972;7.830;2023-01-23T07:01:22;2.00;99.90
4207;DHT22;2117;47.972;7.830;2023-01-23T07:03:48;2.00;99.90
4207;DHT22;2117;47.972;7.830;2023-01-23T07:06:14;2.00;99.90
4207;DHT22;2117;47.972;7.830;2023-01-23T07:08:41;2.00;99.90
4207;DHT22;2117;47.972;7.830;2023-01-23T07:11:07;2.00;99.90
4207;DHT22;2117;47.972;7.830;2023-01-23T07:13:33;2.00;99.90
4207;DHT22;2117;47.972;7.830;2023-01-23T07:15:59;2.00;99.90
4207;DHT22;2117;47.972;7.830;2023-01-23T07:18:25;2.10;99.90
4207;DHT22;2117;47.972;7.830;2023-01-23T07:20:52;2.10;99.90
4207;DHT22;2117;47.972;7.830;2023-01-23T07:23:18;2.10;99.90
4207;DHT22;2117;47.972;7.830;2023-01-23T07:25:44;2.10;99.90
4207;DHT22;2117;47.972;7.830;2023-01-23T07:28:09;2.20;99.90
4207;DHT22;2117;47.972;7.830;2023-01-23T07:30:35;2.10;99.90
4207;DHT22;2117;47.972;7.830;2023-01-23T07:33:00;2.10;99.90
4207;DHT22;2117;47.972;7.830;2023-01-23T07:35:26;2.20;99.90
4207;DHT22;2117;47.972;7.830;2023-01-23T07:37:52;2.20;99.90
4207;DHT22;2117;47.972;7.830;2023-01-23T07:40:17;2.20;99.90
4207;DHT22;2117;47.972;7.830;2023-01-23T07:42:43;2.20;99.90
4207;DHT22;2117;47.972;7.830;2023-01-23T07:45:11;2.20;99.90
4207;DHT22;2117;47.972;7.830;2023-01-23T07:47:36;2.30;99.90
4207;DHT22;2117;47.972;7.830;2023-01-23T07:50:05;2.20;99.90
4207;DHT22;2117;47.972;7.830;2023-01-23T07:52:31;2.20;99.90
4207;DHT22;2117;47.972;7.830;2023-01-23T07:54:56;2.20;99.90
4207;DHT22;2117;47.972;7.830;2023-01-23T07:57:22;2.20;99.90
4207;DHT22;2117;47.972;7.830;2023-01-23T07:59:47;2.20;99.90
4207;DHT22;2117;47.972;7.830;2023-01-23T08:02:13;2.20;99.90
4207;DHT22;2117;47.972;7.830;2023-01-23T08:04:38;2.20;99.90
4207;DHT22;2117;47.972;7.830;2023-01-23T08:07:04;2.20;99.90
4207;DHT22;2117;47.972;7.830;2023-01-23T08:09:30;2.30;99.90
4207;DHT22;2117;47.972;7.830;2023-01-23T08:11:56;2.30;99.90
4207;DHT22;2117;47.972;7.830;2023-01-23T08:14:21;2.30;99.90
4207;DHT22;2117;47.972;7.830;2023-01-23T08:16:51;2.40;99.90
4207;DHT22;2117;47.972;7.830;2023-01-23T08:19:17;2.40;99.90
4207;DHT22;2117;47.972;7.830;2023-01-23T08:21:43;2.40;99.90
4207;DHT22;2117;47.972;7.830;2023-01-23T08:24:10;2.40;99.90
4207;DHT22;2117;47.972;7.830;2023-01-23T08:26:36;2.50;99.90
4207;DHT22;2117;47.972;7.830;2023-01-23T08:29:02;2.50;99.90
4207;DHT22;2117;47.972;7.830;2023-01-23T08:31:28;2.50;99.90
4207;DHT22;2117;47.972;7.830;2023-01-23T08:33:54;2.50;99.90
4207;DHT22;2117;47.972;7.830;2023-01-23T08:36:20;2.50;99.90
4207;DHT22;2117;47.972;7.830;2023-01-23T08:38:45;2.50;99.90
4207;DHT22;2117;47.972;7.830;2023-01-23T08:41:11;2.50;99.90
4207;DHT22;2117;47.972;7.830;2023-01-23T08:43:37;2.50;99.90
4207;DHT22;2117;47.972;7.830;2023-01-23T08:46:03;2.50;99.90
4207;DHT22;2117;47.972;7.830;2023-01-23T08:48:28;2.50;99.90
4207;DHT22;2117;47.972;7.830;2023-01-23T08:51:03;2.50;99.90
4207;DHT22;2117;47.972;7.830;2023-01-23T08:53:29;2.50;99.90
4207;DHT22;2117;47.972;7.830;2023-01-23T08:56:15;2.60;99.90
4207;DHT22;2117;47.972;7.830;2023-01-23T08:58:41;3.10;99.90
4207;DHT22;2117;47.972;7.830;2023-01-23T09:01:15;2.70;99.90
4207;DHT22;2117;47.972;7.830;2023-01-23T09:03:41;2.70;99.90
4207;DHT22;2117;47.972;7.830;2023-01-23T09:06:08;2.80;99.90
4207;DHT22;2117;47.972;7.830;2023-01-23T09:08:34;2.70;99.90
4207;DHT22;2117;47.972;7.830;2023-01-23T09:11:02;2.70;99.90
4207;DHT22;2117;47.972;7.830;2023-01-23T09:13:29;2.80;99.90
4207;DHT22;2117;47.972;7.830;2023-01-23T09:15:54;2.80;99.90
4207;DHT22;2117;47.972;7.830;2023-01-23T09:18:20;2.70;99.90
4207;DHT22;2117;47.972;7.830;2023-01-23T09:20:55;2.80;99.90
4207;DHT22;2117;47.972;7.830;2023-01-23T09:23:21;2.80;99.90
4207;DHT22;2117;47.972;7.830;2023-01-23T09:25:47;2.80;99.90
4207;DHT22;2117;47.972;7.830;2023-01-23T09:28:12;2.70;99.90
4207;DHT22;2117;47.972;7.830;2023-01-23T09:30:38;2.70;99.90
4207;DHT22;2117;47.972;7.830;2023-01-23T09:33:04;2.80;99.90
4207;DHT22;2117;47.972;7.830;2023-01-23T09:35:29;2.90;99.90
4207;DHT22;2117;47.972;7.830;2023-01-23T09:37:55;2.90;99.90
4207;DHT22;2117;47.972;7.830;2023-01-23T09:40:37;2.90;99.90
4207;DHT22;2117;47.972;7.830;2023-01-23T09:48:29;3.00;99.90
4207;DHT22;2117;47.972;7.830;2023-01-23T09:51:03;3.00;99.90
4207;DHT22;2117;47.972;7.830;2023-01-23T09:53:35;3.00;99.90
4207;DHT22;2117;47.972;7.830;2023-01-23T09:56:11;3.00;99.90
4207;DHT22;2117;47.972;7.830;2023-01-23T09:58:45;3.00;99.90
4207;DHT22;2117;47.972;7.830;2023-01-23T10:01:12;3.00;99.90
4207;DHT22;2117;47.972;7.830;2023-01-23T10:03:38;3.00;99.90
4207;DHT22;2117;47.972;7.830;2023-01-23T10:09:07;3.10;99.90
4207;DHT22;2117;47.972;7.830;2023-01-23T10:11:58;3.00;99.90
4207;DHT22;2117;47.972;7.830;2023-01-23T10:17:17;3.00;99.90
4207;DHT22;2117;47.972;7.830;2023-01-23T10:20:02;3.00;99.90
4207;DHT22;2117;47.972;7.830;2023-01-23T10:25:35;3.10;99.90
4207;DHT22;2117;47.972;7.830;2023-01-23T10:28:32;3.10;99.90
4207;DHT22;2117;47.972;7.830;2023-01-23T10:37:12;3.20;99.90
4207;DHT22;2117;47.972;7.830;2023-01-23T10:40:02;3.20;99.90
4207;DHT22;2117;47.972;7.830;2023-01-23T10:42:29;3.20;99.90
4207;DHT22;2117;47.972;7.830;2023-01-23T10:44:55;3.30;99.90
4207;DHT22;2117;47.972;7.830;2023-01-23T10:47:42;3.20;99.90
4207;DHT22;2117;47.972;7.830;2023-01-23T10:50:08;3.30;99.90
4207;DHT22;2117;47.972;7.830;2023-01-23T10:52:35;3.40;99.90
4207;DHT22;2117;47.972;7.830;2023-01-23T10:55:05;3.40;99.90
4207;DHT22;2117;47.972;7.830;2023-01-23T10:57:43;3.50;99.90
4207;DHT22;2117;47.972;7.830;2023-01-23T11:00:43;3.50;99.90
4207;DHT22;2117;47.972;7.830;2023-01-23T11:03:26;3.60;99.90
4207;DHT22;2117;47.972;7.830;2023-01-23T11:06:07;3.70;99.90
4207;DHT22;2117;47.972;7.830;2023-01-23T11:08:39;3.70;99.90
4207;DHT22;2117;47.972;7.830;2023-01-23T11:11:26;3.70;99.90
4207;DHT22;2117;47.972;7.830;2023-01-23T11:14:11;3.80;99.90
4207;DHT22;2117;47.972;7.830;2023-01-23T11:16:38;3.80;99.90
4207;DHT22;2117;47.972;7.830;2023-01-23T11:21:49;3.70;99.90
4207;DHT22;2117;47.972;7.830;2023-01-23T11:27:04;3.70;99.90
4207;DHT22;2117;47.972;7.830;2023-01-23T11:32:28;3.80;99.90
4207;DHT22;2117;47.972;7.830;2023-01-23T11:35:21;3.90;99.90
4207;DHT22;2117;47.972;7.830;2023-01-23T11:37:48;3.80;99.90
4207;DHT22;2117;47.972;7.830;2023-01-23T11:40:19;3.90;99.90
4207;DHT22;2117;47.972;7.830;2023-01-23T11:42:45;3.90;99.90
4207;DHT22;2117;47.972;7.830;2023-01-23T11:45:34;4.00;99.90
4207;DHT22;2117;47.972;7.830;2023-01-23T11:50:51;4.00;99.90
4207;DHT22;2117;47.972;7.830;2023-01-23T12:05:00;4.20;99.90
4207;DHT22;2117;47.972;7.830;2023-01-23T12:07:36;4.20;99.90
4207;DHT22;2117;47.972;7.830;2023-01-23T12:10:25;4.20;99.90
4207;DHT22;2117;47.972;7.830;2023-01-23T12:13:08;4.20;99.90
4207;DHT22;2117;47.972;7.830;2023-01-23T12:15:49;4.20;99.90
4207;DHT22;2117;47.972;7.830;2023-01-23T12:18:38;4.20;99.90
4207;DHT22;2117;47.972;7.830;2023-01-23T12:21:18;4.30;99.90
4207;DHT22;2117;47.972;7.830;2023-01-23T12:24:02;4.70;99.90
4207;DHT22;2117;47.972;7.830;2023-01-23T12:26:33;4.70;99.90
4207;DHT22;2117;47.972;7.830;2023-01-23T12:34:28;4.50;99.90
4207;DHT22;2117;47.972;7.830;2023-01-23T12:37:34;4.40;99.90
4207;DHT22;2117;47.972;7.830;2023-01-23T12:40:11;4.40;99.90
4207;DHT22;2117;47.972;7.830;2023-01-23T12:42:43;4.40;99.90
4207;DHT22;2117;47.972;7.830;2023-01-23T12:45:20;4.40;99.90
4207;DHT22;2117;47.972;7.830;2023-01-23T12:47:54;4.30;99.90
4207;DHT22;2117;47.972;7.830;2023-01-23T12:50:56;4.30;99.90
4207;DHT22;2117;47.972;7.830;2023-01-23T12:53:26;4.30;99.90
4207;DHT22;2117;47.972;7.830;2023-01-23T12:55:59;4.30;99.90
4207;DHT22;2117;47.972;7.830;2023-01-23T12:58:28;4.30;99.90
4207;DHT22;2117;47.972;7.830;2023-01-23T13:06:40;4.10;99.90
4207;DHT22;2117;47.972;7.830;2023-01-23T13:14:44;4.10;99.90
4207;DHT22;2117;47.972;7.830;2023-01-23T13:20:22;4.10;99.90
4207;DHT22;2117;47.972;7.830;2023-01-23T13:23:26;4.10;99.90
4207;DHT22;2117;47.972;7.830;2023-01-23T13:28:45;4.20;99.90
4207;DHT22;2117;47.972;7.830;2023-01-23T13:36:42;4.20;99.90
4207;DHT22;2117;47.972;7.830;2023-01-23T13:48:00;4.30;99.90
4207;DHT22;2117;47.972;7.830;2023-01-23T13:50:52;4.20;99.90
4207;DHT22;2117;47.972;7.830;2023-01-23T13:53:24;4.20;99.90
4207;DHT22;2117;47.972;7.830;2023-01-23T13:56:21;4.30;99.90
4207;DHT22;2117;47.972;7.830;2023-01-23T14:01:57;4.20;99.90
4207;DHT22;2117;47.972;7.830;2023-01-23T14:04:56;4.30;99.90
4207;DHT22;2117;47.972;7.830;2023-01-23T14:07:41;4.30;99.90
4207;DHT22;2117;47.972;7.830;2023-01-23T14:10:34;4.30;99.90
4207;DHT22;2117;47.972;7.830;2023-01-23T14:13:09;4.30;99.90
4207;DHT22;2117;47.972;7.830;2023-01-23T14:15:37;4.30;99.90
4207;DHT22;2117;47.972;7.830;2023-01-23T14:18:31;4.30;99.90
4207;DHT22;2117;47.972;7.830;2023-01-23T14:21:12;4.30;99.90
4207;DHT22;2117;47.972;7.830;2023-01-23T14:23:40;4.20;99.90
4207;DHT22;2117;47.972;7.830;2023-01-23T14:26:12;4.20;99.90
4207;DHT22;2117;47.972;7.830;2023-01-23T14:28:38;4.30;99.90
4207;DHT22;2117;47.972;7.830;2023-01-23T14:31:06;4.30;99.90
4207;DHT22;2117;47.972;7.830;2023-01-23T14:33:40;4.30;99.90
4207;DHT22;2117;47.972;7.830;2023-01-23T14:36:14;4.30;99.90
4207;DHT22;2117;47.972;7.830;2023-01-23T14:38:42;4.30;99.90
4207;DHT22;2117;47.972;7.830;2023-01-23T14:41:09;4.30;99.90
4207;DHT22;2117;47.972;7.830;2023-01-23T14:43:36;4.40;99.90
4207;DHT22;2117;47.972;7.830;2023-01-23T14:46:17;4.40;99.90
4207;DHT22;2117;47.972;7.830;2023-01-23T14:48:48;4.50;99.90
4207;DHT22;2117;47.972;7.830;2023-01-23T14:51:25;4.50;99.90
4207;DHT22;2117;47.972;7.830;2023-01-23T14:53:57;4.50;99.90
4207;DHT22;2117;47.972;7.830;2023-01-23T14:56:34;4.40;99.90
4207;DHT22;2117;47.972;7.830;2023-01-23T14:59:07;4.40;99.90
4207;DHT22;2117;47.972;7.830;2023-01-23T15:01:38;4.40;99.90
4207;DHT22;2117;47.972;7.830;2023-01-23T15:04:06;4.40;99.90
4207;DHT22;2117;47.972;7.830;2023-01-23T15:06:50;4.40;99.90
4207;DHT22;2117;47.972;7.830;2023-01-23T15:09:17;4.50;99.90
4207;DHT22;2117;47.972;7.830;2023-01-23T15:11:46;4.40;99.90
4207;DHT22;2117;47.972;7.830;2023-01-23T15:14:25;4.40;99.90
4207;DHT22;2117;47.972;7.830;2023-01-23T15:16:59;4.30;99.90
4207;DHT22;2117;47.972;7.830;2023-01-23T15:19:25;4.40;99.90
4207;DHT22;2117;47.972;7.830;2023-01-23T15:22:07;4.30;99.90
4207;DHT22;2117;47.972;7.830;2023-01-23T15:24:41;4.30;99.90
4207;DHT22;2117;47.972;7.830;2023-01-23T15:27:26;4.30;99.90
4207;DHT22;2117;47.972;7.830;2023-01-23T15:30:28;4.20;99.90
4207;DHT22;2117;47.972;7.830;2023-01-23T15:32:55;4.30;99.90
4207;DHT22;2117;47.972;7.830;2023-01-23T15:35:20;4.30;99.90
4207;DHT22;2117;47.972;7.830;2023-01-23T15:37:47;4.30;99.90
4207;DHT22;2117;47.972;7.830;2023-01-23T15:40:18;4.40;99.90
4207;DHT22;2117;47.972;7.830;2023-01-23T15:43:00;4.30;99.90
4207;DHT22;2117;47.972;7.830;2023-01-23T15:45:27;4.30;99.90
4207;DHT22;2117;47.972;7.830;2023-01-23T15:47:52;4.30;99.90
4207;DHT22;2117;47.972;7.830;2023-01-23T15:50:18;4.20;99.90
4207;DHT22;2117;47.972;7.830;2023-01-23T15:52:46;4.20;99.90
4207;DHT22;2117;47.972;7.830;2023-01-23T15:55:12;4.20;99.90
4207;DHT22;2117;47.972;7.830;2023-01-23T15:57:38;4.20;99.90
4207;DHT22;2117;47.972;7.830;2023-01-23T16:00:21;4.10;99.90
4207;DHT22;2117;47.972;7.830;2023-01-23T16:02:49;3.90;99.90
4207;DHT22;2117;47.972;7.830;2023-01-23T16:05:20;3.80;99.90
4207;DHT22;2117;47.972;7.830;2023-01-23T16:07:46;3.90;99.90
4207;DHT22;2117;47.972;7.830;2023-01-23T16:10:23;3.80;99.90
4207;DHT22;2117;47.972;7.830;2023-01-23T16:12:52;3.90;99.90
4207;DHT22;2117;47.972;7.830;2023-01-23T16:15:21;3.80;99.90
4207;DHT22;2117;47.972;7.830;2023-01-23T16:17:47;3.80;99.90
4207;DHT22;2117;47.972;7.830;2023-01-23T16:20:40;3.80;99.90
4207;DHT22;2117;47.972;7.830;2023-01-23T16:23:18;3.80;99.90
4207;DHT22;2117;47.972;7.830;2023-01-23T16:25:45;3.80;99.90
4207;DHT22;2117;47.972;7.830;2023-01-23T16:28:22;3.80;99.90
4207;DHT22;2117;47.972;7.830;2023-01-23T16:30:49;3.80;99.90
4207;DHT22;2117;47.972;7.830;2023-01-23T16:33:16;3.80;99.90
4207;DHT22;2117;47.972;7.830;2023-01-23T16:35:42;3.80;99.90
4207;DHT22;2117;47.972;7.830;2023-01-23T16:38:21;3.80;99.90
4207;DHT22;2117;47.972;7.830;2023-01-23T16:40:47;3.80;99.90
4207;DHT22;2117;47.972;7.830;2023-01-23T16:43:15;3.80;99.90
4207;DHT22;2117;47.972;7.830;2023-01-23T16:45:41;3.70;99.90
4207;DHT22;2117;47.972;7.830;2023-01-23T16:48:07;3.70;99.90
4207;DHT22;2117;47.972;7.830;2023-01-23T16:50:36;3.70;99.90
4207;DHT22;2117;47.972;7.830;2023-01-23T16:53:26;3.70;99.90
4207;DHT22;2117;47.972;7.830;2023-01-23T16:55:54;3.70;99.90
4207;DHT22;2117;47.972;7.830;2023-01-23T16:58:24;3.70;99.90
4207;DHT22;2117;47.972;7.830;2023-01-23T17:00:54;3.60;99.90
4207;DHT22;2117;47.972;7.830;2023-01-23T17:03:22;3.60;99.90
4207;DHT22;2117;47.972;7.830;2023-01-23T17:05:49;3.60;99.90
4207;DHT22;2117;47.972;7.830;2023-01-23T17:08:16;3.60;99.90
4207;DHT22;2117;47.972;7.830;2023-01-23T17:10:42;3.70;99.90
4207;DHT22;2117;47.972;7.830;2023-01-23T17:13:10;3.70;99.90
4207;DHT22;2117;47.972;7.830;2023-01-23T17:15:35;3.70;99.90
4207;DHT22;2117;47.972;7.830;2023-01-23T17:18:01;3.70;99.90
4207;DHT22;2117;47.972;7.830;2023-01-23T17:20:27;3.70;99.90
4207;DHT22;2117;47.972;7.830;2023-01-23T17:22:53;3.70;99.90
4207;DHT22;2117;47.972;7.830;2023-01-23T17:25:21;3.70;99.90
4207;DHT22;2117;47.972;7.830;2023-01-23T17:27:48;3.70;99.90
4207;DHT22;2117;47.972;7.830;2023-01-23T17:30:19;3.70;99.90
4207;DHT22;2117;47.972;7.830;2023-01-23T17:32:47;3.70;99.90
4207;DHT22;2117;47.972;7.830;2023-01-23T17:35:23;3.70;99.90
4207;DHT22;2117;47.972;7.830;2023-01-23T17:37:55;3.60;99.90
4207;DHT22;2117;47.972;7.830;2023-01-23T17:40:23;3.60;99.90
4207;DHT22;2117;47.972;7.830;2023-01-23T17:42:49;3.60;99.90
4207;DHT22;2117;47.972;7.830;2023-01-23T17:45:17;3.60;99.90
4207;DHT22;2117;47.972;7.830;2023-01-23T17:47:48;3.70;99.90
4207;DHT22;2117;47.972;7.830;2023-01-23T17:50:24;3.70;99.90
4207;DHT22;2117;47.972;7.830;2023-01-23T17:52:52;3.60;99.90
4207;DHT22;2117;47.972;7.830;2023-01-23T17:55:20;3.50;99.90
4207;DHT22;2117;47.972;7.830;2023-01-23T17:57:46;3.50;99.90
4207;DHT22;2117;47.972;7.830;2023-01-23T18:00:14;3.40;99.90
4207;DHT22;2117;47.972;7.830;2023-01-23T18:02:43;3.40;99.90
4207;DHT22;2117;47.972;7.830;2023-01-23T18:05:11;3.40;99.90
4207;DHT22;2117;47.972;7.830;2023-01-23T18:07:38;3.40;99.90
4207;DHT22;2117;47.972;7.830;2023-01-23T18:10:04;3.40;99.90
4207;DHT22;2117;47.972;7.830;2023-01-23T18:15:16;3.50;99.90
4207;DHT22;2117;47.972;7.830;2023-01-23T18:17:53;3.50;99.90
4207;DHT22;2117;47.972;7.830;2023-01-23T18:20:21;3.50;99.90
4207;DHT22;2117;47.972;7.830;2023-01-23T18:22:48;3.50;99.90
4207;DHT22;2117;47.972;7.830;2023-01-23T18:25:17;3.50;99.90
4207;DHT22;2117;47.972;7.830;2023-01-23T18:27:45;3.50;99.90
4207;DHT22;2117;47.972;7.830;2023-01-23T18:30:35;3.40;99.90
4207;DHT22;2117;47.972;7.830;2023-01-23T18:33:34;3.40;99.90
4207;DHT22;2117;47.972;7.830;2023-01-23T18:39:19;3.40;99.90
4207;DHT22;2117;47.972;7.830;2023-01-23T18:44:25;3.30;99.90
4207;DHT22;2117;47.972;7.830;2023-01-23T18:46:51;3.30;99.90
4207;DHT22;2117;47.972;7.830;2023-01-23T18:49:17;3.30;99.90
4207;DHT22;2117;47.972;7.830;2023-01-23T18:52:01;3.30;99.90
4207;DHT22;2117;47.972;7.830;2023-01-23T18:58:17;3.30;99.90
4207;DHT22;2117;47.972;7.830;2023-01-23T19:00:58;3.30;99.90
4207;DHT22;2117;47.972;7.830;2023-01-23T19:03:55;3.20;99.90
4207;DHT22;2117;47.972;7.830;2023-01-23T19:06:24;3.30;99.90
4207;DHT22;2117;47.972;7.830;2023-01-23T19:08:51;3.40;99.90
4207;DHT22;2117;47.972;7.830;2023-01-23T19:17:02;3.40;99.90
4207;DHT22;2117;47.972;7.830;2023-01-23T19:19:56;3.30;99.90
4207;DHT22;2117;47.972;7.830;2023-01-23T19:22:20;3.30;99.90
4207;DHT22;2117;47.972;7.830;2023-01-23T19:24:46;3.30;99.90
4207;DHT22;2117;47.972;7.830;2023-01-23T19:27:31;3.30;99.90
4207;DHT22;2117;47.972;7.830;2023-01-23T19:29:57;3.30;99.90
4207;DHT22;2117;47.972;7.830;2023-01-23T19:32:23;3.30;99.90
4207;DHT22;2117;47.972;7.830;2023-01-23T19:34:49;3.20;99.90
4207;DHT22;2117;47.972;7.830;2023-01-23T19:37:14;3.20;99.90
4207;DHT22;2117;47.972;7.830;2023-01-23T19:39:40;3.30;99.90
4207;DHT22;2117;47.972;7.830;2023-01-23T19:42:12;3.30;99.90
4207;DHT22;2117;47.972;7.830;2023-01-23T19:44:38;3.30;99.90
4207;DHT22;2117;47.972;7.830;2023-01-23T19:47:04;3.20;99.90
4207;DHT22;2117;47.972;7.830;2023-01-23T19:49:31;3.20;99.90
4207;DHT22;2117;47.972;7.830;2023-01-23T19:51:56;3.20;99.90
4207;DHT22;2117;47.972;7.830;2023-01-23T19:54:22;3.20;99.90
4207;DHT22;2117;47.972;7.830;2023-01-23T19:56:47;3.20;99.90
4207;DHT22;2117;47.972;7.830;2023-01-23T19:59:13;3.10;99.90
4207;DHT22;2117;47.972;7.830;2023-01-23T20:01:45;3.10;99.90
4207;DHT22;2117;47.972;7.830;2023-01-23T20:04:20;3.10;99.90
4207;DHT22;2117;47.972;7.830;2023-01-23T20:06:47;3.10;99.90
4207;DHT22;2117;47.972;7.830;2023-01-23T20:09:19;3.10;99.90
4207;DHT22;2117;47.972;7.830;2023-01-23T20:11:45;3.10;99.90
4207;DHT22;2117;47.972;7.830;2023-01-23T20:14:11;3.20;99.90
4207;DHT22;2117;47.972;7.830;2023-01-23T20:16:37;3.10;99.90
4207;DHT22;2117;47.972;7.830;2023-01-23T20:19:05;3.10;99.90
4207;DHT22;2117;47.972;7.830;2023-01-23T20:21:31;3.10;99.90
4207;DHT22;2117;47.972;7.830;2023-01-23T20:23:57;3.20;99.90
4207;DHT22;2117;47.972;7.830;2023-01-23T20:26:23;3.20;99.90
4207;DHT22;2117;47.972;7.830;2023-01-23T20:28:50;3.10;99.90
4207;DHT22;2117;47.972;7.830;2023-01-23T20:31:18;3.20;99.90
4207;DHT22;2117;47.972;7.830;2023-01-23T20:33:43;3.20;99.90
4207;DHT22;2117;47.972;7.830;2023-01-23T20:36:09;3.20;99.90
4207;DHT22;2117;47.972;7.830;2023-01-23T20:38:35;3.20;99.90
4207;DHT22;2117;47.972;7.830;2023-01-23T20:41:07;3.20;99.90
4207;DHT22;2117;47.972;7.830;2023-01-23T20:43:33;3.20;99.90
4207;DHT22;2117;47.972;7.830;2023-01-23T20:45:58;3.20;99.90
4207;DHT22;2117;47.972;7.830;2023-01-23T20:48:24;3.20;99.90
4207;DHT22;2117;47.972;7.830;2023-01-23T20:50:54;3.20;99.90